Wednesday, October 22, 2014
13:53 UTC
  |  Log In   |  Register Free
Airport Search:

Richmond Municipal Airport
(KRID)

Richmond Municipal Airport Diagram
No Airport Diagram Available

FAA data valid effective September 18, 2014 - November 13, 2014 (unless otherwise noted).

 
 
 
 
 
 
 
 
 
 
 
 
 
 

Current Aviation Weather for Richmond Municipal Airport (KRID)

METAR data is unavailable for RID. The nearest METAR location is at KMWO (24.7 nm SE from RID).

The most recent METAR observation for KMWO was updated at: 1314
METAR Summary (Translated METAR)
KMWO
221255Z AUTO 00000KT 10SM OVC032 06/03 A3030 RMK AO2 T00590031
(24.7 nm SE from KRID)
KHAO
221253Z AUTO 35005KT 10SM BKN037 07/04 A3029 RMK AO2 SLP261 T00670039
(27.9 nm SE from KRID)
TAF Summary (Translated TAF)
KDAY
(23.7 nm NE from KMWO)
221121Z 2212/2312 01009KT P6SM OVC025 FM221700 36010KT P6SM SCT030 FM230000 01004KT P6SM SKC
  Airport Weather Conditions for KRID

Current weather conditions are
not available for RID


The nearest NOAA weather station
is at MWO, (24.7 nm SE from RID)
  
 Current Weather at MWO
43° F
Overcast
North winds at 0.0 mph
MWO NOAA Radar

Pressure: 30.30 in
Humidity: 82%
Wind: Calm
Dew Point: 37.6°F
Visibility: 10.00 mi


Airport Weather Forecast for KRID

Translated METAR and TAF for KMWO
Translated METAR for KMWO (1348 UTC 22 October 2014)
found at http://aviationweather.gov/adds/metars/
 
METAR text: KMWO 221335Z AUTO 00000KT 10SM OVC030 08/05 A3030 RMK AO2 T00820048
Conditions at: KMWO (MIDDLETOWN/HOOK , OH, US) observed 1335 UTC 22 October 2014
Temperature: 8.2°C (47°F)
Dewpoint: 4.8°C (41°F) [RH = 79%]
Pressure (altimeter): 30.30 inches Hg (1026.2 mb)
Winds: calm
Visibility: 10 or more miles (16+ km)
Ceiling: 3000 feet AGL
Clouds: overcast cloud deck at 3000 feet AGL
Weather: automated observation with no human augmentation;
there may or may not be significant weather present at this time
Translated TAF for KMWO

There is no translated TAF available for this airport

Find All Airport Services Find A Hotel Find A Rental Car Find A Golf Course Find A Restaurant $100 Hamburger



FBO's on the Field
FBO Company Facility Photos Services Transportation Aviation Fuel Prices: Prices include tax
Catering Weather Repair Courtesy Rental Type 100LL JetA JetA+ MOGAS 8087
 
Richmond Municipal Airport

This FBO has not yet been rated
FS: Phillips 66
Last Updated: Oct-15
Login to update fuel prices
SS:
Contact Richmond Municipal AirportMore FBO Information
 
Add another FBO Facility Photos Catering Weather Repair Courtesy Rental Type 100LL JetA JetA+ MOGAS 8087
Services Transportation Aviation Fuel Prices: Prices include tax


model-print
model-print
model-print
model-print